sensor_id;sensor_type;location;lat;lon;timestamp;P1;durP1;ratioP1;P2;durP2;ratioP2
57295;SDS011;43146;50.976;18.216;2023-02-01T00:01:29;7.30;;;2.10;;
57295;SDS011;43146;50.976;18.216;2023-02-01T00:03:55;9.90;;;2.30;;
57295;SDS011;43146;50.976;18.216;2023-02-01T00:06:21;9.90;;;2.40;;
57295;SDS011;43146;50.976;18.216;2023-02-01T00:08:46;7.60;;;2.20;;
57295;SDS011;43146;50.976;18.216;2023-02-01T00:11:12;9.40;;;2.20;;
57295;SDS011;43146;50.976;18.216;2023-02-01T00:13:39;6.70;;;2.10;;
57295;SDS011;43146;50.976;18.216;2023-02-01T00:16:09;15.20;;;3.40;;
57295;SDS011;43146;50.976;18.216;2023-02-01T00:18:35;8.30;;;1.90;;
57295;SDS011;43146;50.976;18.216;2023-02-01T00:21:01;7.60;;;1.90;;
57295;SDS011;43146;50.976;18.216;2023-02-01T00:23:27;12.90;;;2.30;;
57295;SDS011;43146;50.976;18.216;2023-02-01T00:25:53;7.60;;;2.30;;
57295;SDS011;43146;50.976;18.216;2023-02-01T00:28:18;11.00;;;2.50;;
57295;SDS011;43146;50.976;18.216;2023-02-01T00:30:44;11.50;;;2.80;;
57295;SDS011;43146;50.976;18.216;2023-02-01T00:33:10;6.40;;;2.10;;
57295;SDS011;43146;50.976;18.216;2023-02-01T00:35:35;7.30;;;1.70;;
57295;SDS011;43146;50.976;18.216;2023-02-01T00:38:02;8.20;;;2.20;;
57295;SDS011;43146;50.976;18.216;2023-02-01T00:40:28;9.10;;;2.50;;
57295;SDS011;43146;50.976;18.216;2023-02-01T00:42:53;9.50;;;2.40;;
57295;SDS011;43146;50.976;18.216;2023-02-01T00:45:19;11.40;;;2.80;;
57295;SDS011;43146;50.976;18.216;2023-02-01T00:47:45;9.40;;;1.40;;
57295;SDS011;43146;50.976;18.216;2023-02-01T00:50:10;12.30;;;2.60;;
57295;SDS011;43146;50.976;18.216;2023-02-01T00:52:36;7.90;;;2.00;;
57295;SDS011;43146;50.976;18.216;2023-02-01T00:55:02;10.70;;;2.60;;
57295;SDS011;43146;50.976;18.216;2023-02-01T00:57:28;5.30;;;1.80;;
57295;SDS011;43146;50.976;18.216;2023-02-01T00:59:54;8.40;;;2.10;;
57295;SDS011;43146;50.976;18.216;2023-02-01T01:02:19;6.60;;;1.80;;
57295;SDS011;43146;50.976;18.216;2023-02-01T01:04:45;14.20;;;2.60;;
57295;SDS011;43146;50.976;18.216;2023-02-01T01:07:11;8.20;;;2.20;;
57295;SDS011;43146;50.976;18.216;2023-02-01T01:09:37;9.60;;;1.90;;
57295;SDS011;43146;50.976;18.216;2023-02-01T01:12:02;9.70;;;2.10;;
57295;SDS011;43146;50.976;18.216;2023-02-01T01:14:29;6.90;;;2.20;;
57295;SDS011;43146;50.976;18.216;2023-02-01T01:16:55;6.50;;;1.80;;
57295;SDS011;43146;50.976;18.216;2023-02-01T01:19:20;9.80;;;1.80;;
57295;SDS011;43146;50.976;18.216;2023-02-01T01:21:46;8.10;;;1.60;;
57295;SDS011;43146;50.976;18.216;2023-02-01T01:24:11;7.20;;;1.80;;
57295;SDS011;43146;50.976;18.216;2023-02-01T01:26:37;5.10;;;1.30;;
57295;SDS011;43146;50.976;18.216;2023-02-01T01:29:03;6.50;;;1.60;;
57295;SDS011;43146;50.976;18.216;2023-02-01T01:31:29;6.40;;;1.70;;
57295;SDS011;43146;50.976;18.216;2023-02-01T01:33:56;11.20;;;2.50;;
57295;SDS011;43146;50.976;18.216;2023-02-01T01:36:24;5.50;;;1.40;;
57295;SDS011;43146;50.976;18.216;2023-02-01T01:38:50;9.20;;;2.40;;
57295;SDS011;43146;50.976;18.216;2023-02-01T01:41:20;6.60;;;1.80;;
57295;SDS011;43146;50.976;18.216;2023-02-01T01:43:52;6.80;;;1.70;;
57295;SDS011;43146;50.976;18.216;2023-02-01T01:46:24;6.50;;;1.20;;
57295;SDS011;43146;50.976;18.216;2023-02-01T01:48:52;9.20;;;2.00;;
57295;SDS011;43146;50.976;18.216;2023-02-01T01:51:22;8.40;;;2.10;;
57295;SDS011;43146;50.976;18.216;2023-02-01T01:54:05;7.20;;;1.50;;
57295;SDS011;43146;50.976;18.216;2023-02-01T01:56:35;9.20;;;2.10;;
57295;SDS011;43146;50.976;18.216;2023-02-01T01:59:01;7.20;;;1.50;;
57295;SDS011;43146;50.976;18.216;2023-02-01T02:01:27;6.40;;;1.70;;
57295;SDS011;43146;50.976;18.216;2023-02-01T02:03:53;4.20;;;1.80;;
57295;SDS011;43146;50.976;18.216;2023-02-01T02:08:57;9.20;;;1.80;;
57295;SDS011;43146;50.976;18.216;2023-02-01T02:11:23;8.00;;;1.90;;
57295;SDS011;43146;50.976;18.216;2023-02-01T02:13:49;5.30;;;1.30;;
57295;SDS011;43146;50.976;18.216;2023-02-01T02:35:21;6.90;;;1.80;;
57295;SDS011;43146;50.976;18.216;2023-02-01T02:38:02;7.80;;;1.70;;
57295;SDS011;43146;50.976;18.216;2023-02-01T02:40:32;8.40;;;1.90;;
57295;SDS011;43146;50.976;18.216;2023-02-01T02:49:36;7.60;;;1.80;;
57295;SDS011;43146;50.976;18.216;2023-02-01T02:52:14;7.80;;;1.60;;
57295;SDS011;43146;50.976;18.216;2023-02-01T02:55:00;8.30;;;2.20;;
57295;SDS011;43146;50.976;18.216;2023-02-01T02:57:33;7.30;;;2.30;;
57295;SDS011;43146;50.976;18.216;2023-02-01T03:00:21;11.50;;;2.80;;
57295;SDS011;43146;50.976;18.216;2023-02-01T03:03:08;12.20;;;2.70;;
57295;SDS011;43146;50.976;18.216;2023-02-01T03:05:52;12.50;;;2.40;;
57295;SDS011;43146;50.976;18.216;2023-02-01T03:08:18;9.90;;;2.10;;
57295;SDS011;43146;50.976;18.216;2023-02-01T03:10:47;8.30;;;1.90;;
57295;SDS011;43146;50.976;18.216;2023-02-01T03:16:41;6.10;;;1.90;;
57295;SDS011;43146;50.976;18.216;2023-02-01T03:19:18;7.90;;;2.00;;
57295;SDS011;43146;50.976;18.216;2023-02-01T03:21:50;4.00;;;1.50;;
57295;SDS011;43146;50.976;18.216;2023-02-01T03:24:26;5.10;;;1.50;;
57295;SDS011;43146;50.976;18.216;2023-02-01T03:27:10;10.80;;;1.60;;
57295;SDS011;43146;50.976;18.216;2023-02-01T03:32:27;6.00;;;1.60;;
57295;SDS011;43146;50.976;18.216;2023-02-01T03:34:53;6.70;;;1.60;;
57295;SDS011;43146;50.976;18.216;2023-02-01T03:37:25;4.70;;;1.40;;
57295;SDS011;43146;50.976;18.216;2023-02-01T03:42:38;15.80;;;2.80;;
57295;SDS011;43146;50.976;18.216;2023-02-01T03:45:59;4.20;;;1.90;;
57295;SDS011;43146;50.976;18.216;2023-02-01T03:48:06;10.90;;;2.60;;
57295;SDS011;43146;50.976;18.216;2023-02-01T03:50:33;8.60;;;2.50;;
57295;SDS011;43146;50.976;18.216;2023-02-01T03:53:08;17.20;;;3.00;;
57295;SDS011;43146;50.976;18.216;2023-02-01T03:55:36;10.40;;;2.60;;
57295;SDS011;43146;50.976;18.216;2023-02-01T04:00:45;14.70;;;3.20;;
57295;SDS011;43146;50.976;18.216;2023-02-01T04:03:17;8.90;;;2.90;;
57295;SDS011;43146;50.976;18.216;2023-02-01T04:05:43;14.20;;;3.00;;
57295;SDS011;43146;50.976;18.216;2023-02-01T04:08:09;14.00;;;2.60;;
57295;SDS011;43146;50.976;18.216;2023-02-01T04:10:34;17.70;;;2.60;;
57295;SDS011;43146;50.976;18.216;2023-02-01T04:13:02;8.70;;;2.50;;
57295;SDS011;43146;50.976;18.216;2023-02-01T04:15:28;12.90;;;2.50;;
57295;SDS011;43146;50.976;18.216;2023-02-01T04:17:54;11.80;;;2.40;;
57295;SDS011;43146;50.976;18.216;2023-02-01T04:20:19;15.00;;;2.80;;
57295;SDS011;43146;50.976;18.216;2023-02-01T04:22:45;12.00;;;2.30;;
57295;SDS011;43146;50.976;18.216;2023-02-01T04:25:10;11.80;;;2.20;;
57295;SDS011;43146;50.976;18.216;2023-02-01T04:27:36;11.10;;;2.20;;
57295;SDS011;43146;50.976;18.216;2023-02-01T04:30:03;9.40;;;2.50;;
57295;SDS011;43146;50.976;18.216;2023-02-01T04:32:29;10.70;;;2.80;;
57295;SDS011;43146;50.976;18.216;2023-02-01T04:34:55;7.80;;;2.00;;
57295;SDS011;43146;50.976;18.216;2023-02-01T04:37:21;9.40;;;2.10;;
57295;SDS011;43146;50.976;18.216;2023-02-01T04:39:47;10.40;;;2.80;;
57295;SDS011;43146;50.976;18.216;2023-02-01T04:42:12;10.90;;;2.30;;
57295;SDS011;43146;50.976;18.216;2023-02-01T04:44:38;10.60;;;2.90;;
57295;SDS011;43146;50.976;18.216;2023-02-01T04:47:07;10.10;;;2.50;;
57295;SDS011;43146;50.976;18.216;2023-02-01T04:49:33;9.80;;;3.60;;
57295;SDS011;43146;50.976;18.216;2023-02-01T04:51:59;69.90;;;32.30;;
57295;SDS011;43146;50.976;18.216;2023-02-01T04:54:24;14.40;;;3.00;;
57295;SDS011;43146;50.976;18.216;2023-02-01T04:56:50;17.10;;;3.00;;
57295;SDS011;43146;50.976;18.216;2023-02-01T04:59:16;11.70;;;3.00;;
57295;SDS011;43146;50.976;18.216;2023-02-01T05:01:41;13.00;;;3.60;;
57295;SDS011;43146;50.976;18.216;2023-02-01T05:04:07;11.40;;;2.30;;
57295;SDS011;43146;50.976;18.216;2023-02-01T05:06:32;11.20;;;2.60;;
57295;SDS011;43146;50.976;18.216;2023-02-01T05:08:58;9.20;;;2.30;;
57295;SDS011;43146;50.976;18.216;2023-02-01T05:11:23;11.20;;;2.10;;
57295;SDS011;43146;50.976;18.216;2023-02-01T05:14:08;19.20;;;3.50;;
57295;SDS011;43146;50.976;18.216;2023-02-01T05:16:33;9.20;;;2.70;;
57295;SDS011;43146;50.976;18.216;2023-02-01T05:18:59;14.00;;;2.40;;
57295;SDS011;43146;50.976;18.216;2023-02-01T05:21:25;10.30;;;2.30;;
57295;SDS011;43146;50.976;18.216;2023-02-01T05:23:50;10.00;;;2.70;;
57295;SDS011;43146;50.976;18.216;2023-02-01T05:26:34;10.90;;;2.60;;
57295;SDS011;43146;50.976;18.216;2023-02-01T05:29:01;30.00;;;9.90;;
57295;SDS011;43146;50.976;18.216;2023-02-01T05:31:27;18.10;;;3.20;;
57295;SDS011;43146;50.976;18.216;2023-02-01T05:33:53;8.90;;;2.20;;
57295;SDS011;43146;50.976;18.216;2023-02-01T05:36:19;8.80;;;3.20;;
57295;SDS011;43146;50.976;18.216;2023-02-01T05:38:45;10.90;;;2.60;;
57295;SDS011;43146;50.976;18.216;2023-02-01T05:41:10;16.20;;;3.10;;
57295;SDS011;43146;50.976;18.216;2023-02-01T05:43:36;8.10;;;2.60;;
57295;SDS011;43146;50.976;18.216;2023-02-01T05:46:02;10.60;;;2.50;;
57295;SDS011;43146;50.976;18.216;2023-02-01T05:48:28;22.20;;;5.50;;
57295;SDS011;43146;50.976;18.216;2023-02-01T05:50:53;25.30;;;5.10;;
57295;SDS011;43146;50.976;18.216;2023-02-01T05:53:19;13.30;;;3.80;;
57295;SDS011;43146;50.976;18.216;2023-02-01T05:55:45;16.80;;;3.80;;
57295;SDS011;43146;50.976;18.216;2023-02-01T05:58:10;10.80;;;2.80;;
57295;SDS011;43146;50.976;18.216;2023-02-01T06:00:37;12.70;;;3.30;;
57295;SDS011;43146;50.976;18.216;2023-02-01T06:03:03;15.00;;;3.90;;
57295;SDS011;43146;50.976;18.216;2023-02-01T06:05:29;17.70;;;3.10;;
57295;SDS011;43146;50.976;18.216;2023-02-01T06:07:55;6.90;;;2.50;;
57295;SDS011;43146;50.976;18.216;2023-02-01T06:10:21;10.90;;;2.80;;
57295;SDS011;43146;50.976;18.216;2023-02-01T06:12:47;17.30;;;3.30;;
57295;SDS011;43146;50.976;18.216;2023-02-01T06:15:13;27.50;;;10.00;;
57295;SDS011;43146;50.976;18.216;2023-02-01T06:17:45;14.10;;;2.80;;
57295;SDS011;43146;50.976;18.216;2023-02-01T06:20:12;15.00;;;3.40;;
57295;SDS011;43146;50.976;18.216;2023-02-01T06:22:39;15.60;;;3.40;;
57295;SDS011;43146;50.976;18.216;2023-02-01T06:25:06;15.80;;;3.40;;
57295;SDS011;43146;50.976;18.216;2023-02-01T06:27:33;12.40;;;2.80;;
57295;SDS011;43146;50.976;18.216;2023-02-01T06:29:59;19.10;;;4.10;;
57295;SDS011;43146;50.976;18.216;2023-02-01T06:32:25;11.00;;;2.40;;
57295;SDS011;43146;50.976;18.216;2023-02-01T06:34:50;7.60;;;2.20;;
57295;SDS011;43146;50.976;18.216;2023-02-01T06:37:20;9.50;;;2.50;;
57295;SDS011;43146;50.976;18.216;2023-02-01T06:39:48;15.30;;;3.20;;
57295;SDS011;43146;50.976;18.216;2023-02-01T06:42:14;17.10;;;4.30;;
57295;SDS011;43146;50.976;18.216;2023-02-01T06:44:40;10.70;;;2.80;;
57295;SDS011;43146;50.976;18.216;2023-02-01T06:47:07;15.60;;;3.20;;
57295;SDS011;43146;50.976;18.216;2023-02-01T06:49:33;13.70;;;2.60;;
57295;SDS011;43146;50.976;18.216;2023-02-01T06:51:58;9.60;;;2.20;;
57295;SDS011;43146;50.976;18.216;2023-02-01T06:54:27;21.90;;;5.80;;
57295;SDS011;43146;50.976;18.216;2023-02-01T06:56:53;24.10;;;5.50;;
57295;SDS011;43146;50.976;18.216;2023-02-01T06:59:19;42.50;;;13.40;;
57295;SDS011;43146;50.976;18.216;2023-02-01T07:01:44;42.30;;;12.00;;
57295;SDS011;43146;50.976;18.216;2023-02-01T07:04:13;50.50;;;15.00;;
57295;SDS011;43146;50.976;18.216;2023-02-01T07:06:39;28.30;;;7.30;;
57295;SDS011;43146;50.976;18.216;2023-02-01T07:09:05;55.30;;;13.50;;
57295;SDS011;43146;50.976;18.216;2023-02-01T07:11:32;26.70;;;7.70;;
57295;SDS011;43146;50.976;18.216;2023-02-01T07:13:58;28.10;;;8.10;;
57295;SDS011;43146;50.976;18.216;2023-02-01T07:16:24;31.90;;;7.60;;
57295;SDS011;43146;50.976;18.216;2023-02-01T07:18:51;40.20;;;10.40;;
57295;SDS011;43146;50.976;18.216;2023-02-01T07:21:18;32.20;;;8.00;;
57295;SDS011;43146;50.976;18.216;2023-02-01T07:23:44;19.40;;;5.80;;
57295;SDS011;43146;50.976;18.216;2023-02-01T07:26:11;24.30;;;5.60;;
57295;SDS011;43146;50.976;18.216;2023-02-01T07:28:38;23.00;;;4.70;;
57295;SDS011;43146;50.976;18.216;2023-02-01T07:31:08;27.60;;;6.60;;
57295;SDS011;43146;50.976;18.216;2023-02-01T07:33:35;20.70;;;6.40;;
57295;SDS011;43146;50.976;18.216;2023-02-01T07:36:02;16.10;;;5.20;;
57295;SDS011;43146;50.976;18.216;2023-02-01T07:38:29;16.30;;;4.00;;
57295;SDS011;43146;50.976;18.216;2023-02-01T07:40:58;16.90;;;3.90;;
57295;SDS011;43146;50.976;18.216;2023-02-01T07:43:25;18.00;;;5.10;;
57295;SDS011;43146;50.976;18.216;2023-02-01T07:45:52;15.30;;;4.20;;
57295;SDS011;43146;50.976;18.216;2023-02-01T07:48:18;16.30;;;5.40;;
57295;SDS011;43146;50.976;18.216;2023-02-01T07:50:45;22.90;;;5.40;;
57295;SDS011;43146;50.976;18.216;2023-02-01T07:53:10;17.70;;;4.90;;
57295;SDS011;43146;50.976;18.216;2023-02-01T07:55:40;19.00;;;4.20;;
57295;SDS011;43146;50.976;18.216;2023-02-01T07:58:06;17.80;;;4.80;;
57295;SDS011;43146;50.976;18.216;2023-02-01T08:00:32;14.40;;;2.70;;
57295;SDS011;43146;50.976;18.216;2023-02-01T08:03:16;24.30;;;10.50;;
57295;SDS011;43146;50.976;18.216;2023-02-01T08:05:42;12.50;;;5.20;;
57295;SDS011;43146;50.976;18.216;2023-02-01T08:08:08;28.80;;;8.00;;
57295;SDS011;43146;50.976;18.216;2023-02-01T08:10:34;18.40;;;7.80;;
57295;SDS011;43146;50.976;18.216;2023-02-01T08:13:00;73.20;;;31.60;;
57295;SDS011;43146;50.976;18.216;2023-02-01T08:15:27;142.30;;;56.60;;
57295;SDS011;43146;50.976;18.216;2023-02-01T08:17:53;69.80;;;30.70;;
57295;SDS011;43146;50.976;18.216;2023-02-01T08:20:21;71.00;;;28.60;;
57295;SDS011;43146;50.976;18.216;2023-02-01T08:22:48;280.30;;;120.90;;
57295;SDS011;43146;50.976;18.216;2023-02-01T08:25:15;276.70;;;127.30;;
57295;SDS011;43146;50.976;18.216;2023-02-01T08:27:41;207.70;;;77.90;;
57295;SDS011;43146;50.976;18.216;2023-02-01T08:30:06;218.40;;;91.80;;
57295;SDS011;43146;50.976;18.216;2023-02-01T08:32:34;158.60;;;60.10;;
57295;SDS011;43146;50.976;18.216;2023-02-01T08:35:00;116.40;;;44.90;;
57295;SDS011;43146;50.976;18.216;2023-02-01T08:37:27;137.70;;;53.50;;
57295;SDS011;43146;50.976;18.216;2023-02-01T08:39:52;87.90;;;41.40;;
57295;SDS011;43146;50.976;18.216;2023-02-01T08:42:18;28.50;;;11.90;;
57295;SDS011;43146;50.976;18.216;2023-02-01T08:45:03;86.60;;;37.90;;
57295;SDS011;43146;50.976;18.216;2023-02-01T08:47:29;273.10;;;132.90;;
57295;SDS011;43146;50.976;18.216;2023-02-01T08:49:55;178.80;;;66.10;;
57295;SDS011;43146;50.976;18.216;2023-02-01T08:52:20;266.90;;;106.20;;
57295;SDS011;43146;50.976;18.216;2023-02-01T08:54:46;156.10;;;57.60;;
57295;SDS011;43146;50.976;18.216;2023-02-01T08:57:12;260.30;;;81.50;;
57295;SDS011;43146;50.976;18.216;2023-02-01T08:59:38;371.90;;;132.90;;
57295;SDS011;43146;50.976;18.216;2023-02-01T09:02:04;319.40;;;114.40;;
57295;SDS011;43146;50.976;18.216;2023-02-01T09:04:29;158.60;;;57.90;;
57295;SDS011;43146;50.976;18.216;2023-02-01T09:06:55;444.00;;;178.90;;
57295;SDS011;43146;50.976;18.216;2023-02-01T09:09:21;613.60;;;232.20;;
57295;SDS011;43146;50.976;18.216;2023-02-01T09:11:48;106.50;;;34.00;;
57295;SDS011;43146;50.976;18.216;2023-02-01T09:14:15;316.90;;;138.50;;
57295;SDS011;43146;50.976;18.216;2023-02-01T09:16:42;222.50;;;73.80;;
57295;SDS011;43146;50.976;18.216;2023-02-01T09:19:07;178.00;;;76.30;;
57295;SDS011;43146;50.976;18.216;2023-02-01T09:21:33;204.30;;;81.80;;
57295;SDS011;43146;50.976;18.216;2023-02-01T09:23:59;256.20;;;103.90;;
57295;SDS011;43146;50.976;18.216;2023-02-01T09:26:25;189.00;;;83.40;;
57295;SDS011;43146;50.976;18.216;2023-02-01T09:28:51;203.80;;;65.30;;
57295;SDS011;43146;50.976;18.216;2023-02-01T09:31:17;162.70;;;52.70;;
57295;SDS011;43146;50.976;18.216;2023-02-01T09:33:44;68.10;;;26.80;;
57295;SDS011;43146;50.976;18.216;2023-02-01T09:36:09;154.80;;;63.80;;
57295;SDS011;43146;50.976;18.216;2023-02-01T09:38:35;140.30;;;71.10;;
57295;SDS011;43146;50.976;18.216;2023-02-01T09:41:01;71.20;;;28.30;;
57295;SDS011;43146;50.976;18.216;2023-02-01T09:43:34;89.50;;;47.90;;
57295;SDS011;43146;50.976;18.216;2023-02-01T09:48:57;52.40;;;20.50;;
57295;SDS011;43146;50.976;18.216;2023-02-01T09:51:40;42.60;;;20.00;;
57295;SDS011;43146;50.976;18.216;2023-02-01T09:54:11;35.70;;;20.20;;
57295;SDS011;43146;50.976;18.216;2023-02-01T09:56:56;44.40;;;21.50;;
57295;SDS011;43146;50.976;18.216;2023-02-01T09:59:32;30.90;;;15.40;;
57295;SDS011;43146;50.976;18.216;2023-02-01T10:02:04;28.80;;;13.90;;
57295;SDS011;43146;50.976;18.216;2023-02-01T10:04:37;26.70;;;11.00;;
57295;SDS011;43146;50.976;18.216;2023-02-01T10:09:45;19.20;;;8.00;;
57295;SDS011;43146;50.976;18.216;2023-02-01T10:21:04;20.90;;;7.60;;
57295;SDS011;43146;50.976;18.216;2023-02-01T10:24:28;33.70;;;10.80;;
57295;SDS011;43146;50.976;18.216;2023-02-01T10:26:56;50.30;;;17.70;;
57295;SDS011;43146;50.976;18.216;2023-02-01T10:29:29;27.90;;;9.80;;
57295;SDS011;43146;50.976;18.216;2023-02-01T10:31:58;25.70;;;10.60;;
57295;SDS011;43146;50.976;18.216;2023-02-01T10:34:28;25.80;;;8.90;;
57295;SDS011;43146;50.976;18.216;2023-02-01T10:36:58;20.10;;;7.10;;
57295;SDS011;43146;50.976;18.216;2023-02-01T10:39:26;21.20;;;5.10;;
57295;SDS011;43146;50.976;18.216;2023-02-01T10:41:52;12.00;;;3.50;;
57295;SDS011;43146;50.976;18.216;2023-02-01T10:44:21;14.60;;;4.60;;
57295;SDS011;43146;50.976;18.216;2023-02-01T10:46:50;13.40;;;4.50;;
57295;SDS011;43146;50.976;18.216;2023-02-01T10:49:18;30.00;;;10.10;;
57295;SDS011;43146;50.976;18.216;2023-02-01T10:52:00;20.80;;;5.60;;
57295;SDS011;43146;50.976;18.216;2023-02-01T10:54:35;10.90;;;3.00;;
57295;SDS011;43146;50.976;18.216;2023-02-01T10:57:07;10.00;;;2.50;;
57295;SDS011;43146;50.976;18.216;2023-02-01T10:59:33;17.10;;;5.10;;
57295;SDS011;43146;50.976;18.216;2023-02-01T11:02:02;12.50;;;3.90;;
57295;SDS011;43146;50.976;18.216;2023-02-01T11:04:39;13.50;;;2.90;;
57295;SDS011;43146;50.976;18.216;2023-02-01T11:07:13;10.20;;;2.90;;
57295;SDS011;43146;50.976;18.216;2023-02-01T11:09:50;11.30;;;3.50;;
57295;SDS011;43146;50.976;18.216;2023-02-01T11:12:22;10.20;;;3.00;;
57295;SDS011;43146;50.976;18.216;2023-02-01T11:14:55;28.80;;;8.20;;
57295;SDS011;43146;50.976;18.216;2023-02-01T11:17:28;75.30;;;26.10;;
57295;SDS011;43146;50.976;18.216;2023-02-01T11:20:38;30.10;;;9.80;;
57295;SDS011;43146;50.976;18.216;2023-02-01T11:23:10;121.70;;;33.60;;
57295;SDS011;43146;50.976;18.216;2023-02-01T11:28:12;33.20;;;9.40;;
57295;SDS011;43146;50.976;18.216;2023-02-01T11:30:39;62.40;;;25.90;;
57295;SDS011;43146;50.976;18.216;2023-02-01T11:33:07;8.40;;;3.50;;
57295;SDS011;43146;50.976;18.216;2023-02-01T11:35:39;48.60;;;22.70;;
57295;SDS011;43146;50.976;18.216;2023-02-01T11:38:51;15.90;;;4.60;;
57295;SDS011;43146;50.976;18.216;2023-02-01T11:41:20;28.10;;;9.50;;
57295;SDS011;43146;50.976;18.216;2023-02-01T11:43:52;23.30;;;13.10;;
57295;SDS011;43146;50.976;18.216;2023-02-01T11:46:29;17.50;;;7.80;;
57295;SDS011;43146;50.976;18.216;2023-02-01T11:48:57;25.90;;;9.30;;
57295;SDS011;43146;50.976;18.216;2023-02-01T12:08:45;5.90;;;2.40;;
57295;SDS011;43146;50.976;18.216;2023-02-01T12:25:43;152.40;;;55.00;;
57295;SDS011;43146;50.976;18.216;2023-02-01T12:28:34;58.10;;;19.00;;
57295;SDS011;43146;50.976;18.216;2023-02-01T12:36:46;82.40;;;36.20;;
57295;SDS011;43146;50.976;18.216;2023-02-01T12:39:22;16.00;;;5.40;;
57295;SDS011;43146;50.976;18.216;2023-02-01T12:41:55;102.00;;;38.80;;
57295;SDS011;43146;50.976;18.216;2023-02-01T12:55:21;7.30;;;2.60;;
57295;SDS011;43146;50.976;18.216;2023-02-01T12:57:50;10.70;;;2.40;;
57295;SDS011;43146;50.976;18.216;2023-02-01T13:00:38;8.20;;;2.90;;
57295;SDS011;43146;50.976;18.216;2023-02-01T13:06:00;10.20;;;3.40;;
57295;SDS011;43146;50.976;18.216;2023-02-01T13:11:46;11.60;;;4.80;;
57295;SDS011;43146;50.976;18.216;2023-02-01T13:16:43;10.30;;;3.40;;
57295;SDS011;43146;50.976;18.216;2023-02-01T13:21:53;16.30;;;6.00;;
57295;SDS011;43146;50.976;18.216;2023-02-01T13:24:42;6.80;;;2.60;;
57295;SDS011;43146;50.976;18.216;2023-02-01T13:27:13;7.90;;;2.30;;
57295;SDS011;43146;50.976;18.216;2023-02-01T13:38:06;9.50;;;3.00;;
57295;SDS011;43146;50.976;18.216;2023-02-01T13:43:40;64.60;;;13.50;;
57295;SDS011;43146;50.976;18.216;2023-02-01T13:46:07;10.30;;;3.40;;
57295;SDS011;43146;50.976;18.216;2023-02-01T13:48:41;13.70;;;5.60;;
57295;SDS011;43146;50.976;18.216;2023-02-01T13:51:10;33.20;;;11.10;;
57295;SDS011;43146;50.976;18.216;2023-02-01T13:53:38;10.70;;;4.40;;
57295;SDS011;43146;50.976;18.216;2023-02-01T13:56:18;35.50;;;12.60;;
57295;SDS011;43146;50.976;18.216;2023-02-01T13:58:47;26.70;;;10.30;;
57295;SDS011;43146;50.976;18.216;2023-02-01T14:03:58;10.60;;;3.80;;
57295;SDS011;43146;50.976;18.216;2023-02-01T14:11:52;17.20;;;6.70;;
57295;SDS011;43146;50.976;18.216;2023-02-01T14:19:34;58.30;;;17.60;;
57295;SDS011;43146;50.976;18.216;2023-02-01T14:22:01;57.40;;;19.70;;
57295;SDS011;43146;50.976;18.216;2023-02-01T14:24:53;59.00;;;20.10;;
57295;SDS011;43146;50.976;18.216;2023-02-01T14:27:21;75.80;;;31.40;;
57295;SDS011;43146;50.976;18.216;2023-02-01T14:29:52;67.20;;;27.20;;
57295;SDS011;43146;50.976;18.216;2023-02-01T14:32:44;48.70;;;21.40;;
57295;SDS011;43146;50.976;18.216;2023-02-01T14:37:43;52.80;;;24.80;;
57295;SDS011;43146;50.976;18.216;2023-02-01T14:42:43;33.40;;;11.80;;
57295;SDS011;43146;50.976;18.216;2023-02-01T14:47:42;35.20;;;14.20;;
57295;SDS011;43146;50.976;18.216;2023-02-01T14:52:46;61.70;;;18.90;;
57295;SDS011;43146;50.976;18.216;2023-02-01T14:55:21;55.40;;;19.80;;
57295;SDS011;43146;50.976;18.216;2023-02-01T14:57:50;51.60;;;15.40;;
57295;SDS011;43146;50.976;18.216;2023-02-01T15:00:23;34.40;;;12.80;;
57295;SDS011;43146;50.976;18.216;2023-02-01T15:02:51;49.90;;;18.60;;
57295;SDS011;43146;50.976;18.216;2023-02-01T15:07:57;40.50;;;16.80;;
57295;SDS011;43146;50.976;18.216;2023-02-01T15:10:26;52.90;;;17.90;;
57295;SDS011;43146;50.976;18.216;2023-02-01T15:12:52;29.50;;;9.60;;
57295;SDS011;43146;50.976;18.216;2023-02-01T15:15:22;36.60;;;13.50;;
57295;SDS011;43146;50.976;18.216;2023-02-01T15:20:19;29.60;;;10.90;;
57295;SDS011;43146;50.976;18.216;2023-02-01T15:22:56;27.30;;;10.90;;
57295;SDS011;43146;50.976;18.216;2023-02-01T15:27:50;29.50;;;11.50;;
57295;SDS011;43146;50.976;18.216;2023-02-01T15:30:17;28.10;;;11.00;;
57295;SDS011;43146;50.976;18.216;2023-02-01T15:32:46;30.20;;;11.40;;
57295;SDS011;43146;50.976;18.216;2023-02-01T15:35:35;21.80;;;8.50;;
57295;SDS011;43146;50.976;18.216;2023-02-01T15:46:08;51.50;;;16.30;;
57295;SDS011;43146;50.976;18.216;2023-02-01T15:48:41;39.80;;;16.80;;
57295;SDS011;43146;50.976;18.216;2023-02-01T15:51:12;34.60;;;14.30;;
57295;SDS011;43146;50.976;18.216;2023-02-01T15:53:46;40.90;;;18.50;;
57295;SDS011;43146;50.976;18.216;2023-02-01T15:56:14;24.40;;;11.10;;
57295;SDS011;43146;50.976;18.216;2023-02-01T15:58:41;64.10;;;21.50;;
57295;SDS011;43146;50.976;18.216;2023-02-01T16:01:10;41.50;;;15.40;;
57295;SDS011;43146;50.976;18.216;2023-02-01T16:03:39;32.10;;;13.60;;
57295;SDS011;43146;50.976;18.216;2023-02-01T16:06:08;34.30;;;12.50;;
57295;SDS011;43146;50.976;18.216;2023-02-01T16:08:54;99.40;;;35.00;;
57295;SDS011;43146;50.976;18.216;2023-02-01T16:11:22;142.30;;;40.90;;
57295;SDS011;43146;50.976;18.216;2023-02-01T16:13:56;748.10;;;313.90;;
57295;SDS011;43146;50.976;18.216;2023-02-01T16:16:26;996.20;;;387.80;;
57295;SDS011;43146;50.976;18.216;2023-02-01T16:18:53;697.40;;;301.20;;
57295;SDS011;43146;50.976;18.216;2023-02-01T16:21:19;370.80;;;166.20;;
57295;SDS011;43146;50.976;18.216;2023-02-01T16:23:48;117.20;;;49.40;;
57295;SDS011;43146;50.976;18.216;2023-02-01T16:26:17;218.10;;;80.50;;
57295;SDS011;43146;50.976;18.216;2023-02-01T16:28:43;153.00;;;57.90;;
57295;SDS011;43146;50.976;18.216;2023-02-01T16:31:13;28.90;;;10.40;;
57295;SDS011;43146;50.976;18.216;2023-02-01T16:33:45;43.40;;;14.40;;
57295;SDS011;43146;50.976;18.216;2023-02-01T16:36:12;39.50;;;9.80;;
57295;SDS011;43146;50.976;18.216;2023-02-01T16:38:39;17.70;;;4.30;;
57295;SDS011;43146;50.976;18.216;2023-02-01T16:41:05;12.40;;;4.10;;
57295;SDS011;43146;50.976;18.216;2023-02-01T16:43:31;13.00;;;5.20;;
57295;SDS011;43146;50.976;18.216;2023-02-01T16:45:58;12.60;;;3.90;;
57295;SDS011;43146;50.976;18.216;2023-02-01T16:48:31;15.90;;;4.40;;
57295;SDS011;43146;50.976;18.216;2023-02-01T16:51:17;20.40;;;6.00;;
57295;SDS011;43146;50.976;18.216;2023-02-01T16:53:44;19.40;;;5.30;;
57295;SDS011;43146;50.976;18.216;2023-02-01T16:56:15;15.00;;;4.00;;
57295;SDS011;43146;50.976;18.216;2023-02-01T16:58:42;17.00;;;4.50;;
57295;SDS011;43146;50.976;18.216;2023-02-01T17:01:10;15.80;;;3.70;;
57295;SDS011;43146;50.976;18.216;2023-02-01T17:03:38;12.60;;;3.50;;
57295;SDS011;43146;50.976;18.216;2023-02-01T17:06:04;14.40;;;3.90;;
57295;SDS011;43146;50.976;18.216;2023-02-01T17:08:35;11.90;;;3.70;;
57295;SDS011;43146;50.976;18.216;2023-02-01T17:11:03;14.60;;;4.50;;
57295;SDS011;43146;50.976;18.216;2023-02-01T17:13:30;13.80;;;3.60;;
57295;SDS011;43146;50.976;18.216;2023-02-01T17:15:57;9.30;;;3.10;;
57295;SDS011;43146;50.976;18.216;2023-02-01T17:18:25;13.40;;;4.00;;